MSC Lea — 9HA2639 — position and weather

sailwx.info

Track history (hours):
 
Tides and Currents Weather Stations Pressure Air Temp Water Temp Dewpoint Dewpoint Depression Visibility Wind Speed Wind Dir Waves Ship Positions

MSC Lea

Last reported at 2014-Nov-24 22:33 UTC. Time now 2014-Nov-28 05:50 UTC.
Position N 32°28' E 034°42'.

Length 217 m; draft 9.5 m.

Type: Ship (hazmat cat A). MMSI: 215101000.

Date/timePositionNaut miles runAvg speedWind from/ knotsBaromVisibWave heightAir tempDewpointWater temp
2014-Nov-24 22:33N 32°28' E 034°42'1414.0
2014-Nov-24 21:33N 32°41' E 034°47'  
2014-Nov-19 11:17N 36°24' E 026°56'811.5
2014-Nov-19 10:33N 36°30' E 026°48'1211.9
2014-Nov-19 09:34N 36°38' E 026°37'1211.9
2014-Nov-19 08:33N 36°47' E 026°27'1212.0
2014-Nov-19 07:33N 36°55' E 026°16'1211.8
2014-Nov-19 06:33N 37°05' E 026°07'1312.7
2014-Nov-19 05:34N 37°16' E 026°00'1313.3
2014-Nov-19 04:34N 37°28' E 025°54'1313.3
2014-Nov-19 03:34N 37°41' E 025°51'1412.9
2014-Nov-19 02:28N 37°55' E 025°50'1112.6
2014-Nov-19 01:33N 38°07' E 025°48'1212.4
2014-Nov-19 00:34N 38°19' E 025°47'1212.2
2014-Nov-18 23:34N 38°31' E 025°46'  
2014-Nov-15 06:19N 41°22' E 029°05'  
Track history (hours):
 
Tides and Currents Weather Stations Pressure Air Temp Water Temp Dewpoint Dewpoint Depression Visibility Wind Speed Wind Dir Waves Ship Positions

MSC Lea

Last reported at 2014-Nov-24 22:33 UTC. Time now 2014-Nov-28 05:50 UTC.
Position N 32°28' E 034°42'.

Length 217 m; draft 9.5 m.

Type: Ship (hazmat cat A). MMSI: 215101000.

Date/timePositionNaut miles runAvg speedWind from/ knotsBaromVisibWave heightAir tempDewpointWater temp
2014-Nov-24 22:33N 32°28' E 034°42'1414.0
2014-Nov-24 21:33N 32°41' E 034°47'  
2014-Nov-19 11:17N 36°24' E 026°56'811.5
2014-Nov-19 10:33N 36°30' E 026°48'1211.9
2014-Nov-19 09:34N 36°38' E 026°37'1211.9
2014-Nov-19 08:33N 36°47' E 026°27'1212.0
2014-Nov-19 07:33N 36°55' E 026°16'1211.8
2014-Nov-19 06:33N 37°05' E 026°07'1312.7
2014-Nov-19 05:34N 37°16' E 026°00'1313.3
2014-Nov-19 04:34N 37°28' E 025°54'1313.3
2014-Nov-19 03:34N 37°41' E 025°51'1412.9
2014-Nov-19 02:28N 37°55' E 025°50'1112.6
2014-Nov-19 01:33N 38°07' E 025°48'1212.4
2014-Nov-19 00:34N 38°19' E 025°47'1212.2
2014-Nov-18 23:34N 38°31' E 025°46'  
2014-Nov-15 06:19N 41°22' E 029°05'  

Dump ship's entire track history